sensor_id;sensor_type;location;lat;lon;timestamp;temperature;humidity
17007;DHT22;8620;51.168;4.154;2022-11-15T00:01:47;10.70;99.90
17007;DHT22;8620;51.168;4.154;2022-11-15T00:04:13;10.70;99.90
17007;DHT22;8620;51.168;4.154;2022-11-15T00:06:39;10.80;99.90
17007;DHT22;8620;51.168;4.154;2022-11-15T00:09:14;10.90;99.90
17007;DHT22;8620;51.168;4.154;2022-11-15T00:11:40;10.90;99.90
17007;DHT22;8620;51.168;4.154;2022-11-15T00:14:08;11.00;99.90
17007;DHT22;8620;51.168;4.154;2022-11-15T00:16:34;11.00;99.90
17007;DHT22;8620;51.168;4.154;2022-11-15T00:19:00;11.10;99.90
17007;DHT22;8620;51.168;4.154;2022-11-15T00:21:30;11.10;99.90
17007;DHT22;8620;51.168;4.154;2022-11-15T00:24:02;11.10;99.90
17007;DHT22;8620;51.168;4.154;2022-11-15T00:26:28;11.10;99.90
17007;DHT22;8620;51.168;4.154;2022-11-15T00:28:57;11.30;99.90
17007;DHT22;8620;51.168;4.154;2022-11-15T00:31:22;11.20;99.90
17007;DHT22;8620;51.168;4.154;2022-11-15T00:33:48;11.30;99.90
17007;DHT22;8620;51.168;4.154;2022-11-15T00:36:17;11.40;99.90
17007;DHT22;8620;51.168;4.154;2022-11-15T00:38:46;11.40;99.90
17007;DHT22;8620;51.168;4.154;2022-11-15T00:41:15;11.30;99.90
17007;DHT22;8620;51.168;4.154;2022-11-15T00:43:41;11.40;99.90
17007;DHT22;8620;51.168;4.154;2022-11-15T00:46:09;11.40;99.90
17007;DHT22;8620;51.168;4.154;2022-11-15T00:48:38;11.50;99.90
17007;DHT22;8620;51.168;4.154;2022-11-15T00:51:07;11.40;99.90
17007;DHT22;8620;51.168;4.154;2022-11-15T00:53:38;11.40;99.90
17007;DHT22;8620;51.168;4.154;2022-11-15T00:56:07;11.40;99.90
17007;DHT22;8620;51.168;4.154;2022-11-15T00:58:36;11.40;99.90
17007;DHT22;8620;51.168;4.154;2022-11-15T01:01:13;11.40;99.90
17007;DHT22;8620;51.168;4.154;2022-11-15T01:03:41;11.30;99.90
17007;DHT22;8620;51.168;4.154;2022-11-15T01:06:15;11.30;99.90
17007;DHT22;8620;51.168;4.154;2022-11-15T01:08:41;11.20;99.90
17007;DHT22;8620;51.168;4.154;2022-11-15T01:11:14;11.30;99.90
17007;DHT22;8620;51.168;4.154;2022-11-15T01:13:48;11.20;99.90
17007;DHT22;8620;51.168;4.154;2022-11-15T01:16:17;11.30;99.90
17007;DHT22;8620;51.168;4.154;2022-11-15T01:18:46;11.30;99.90
17007;DHT22;8620;51.168;4.154;2022-11-15T01:21:15;11.30;99.90
17007;DHT22;8620;51.168;4.154;2022-11-15T01:23:52;11.30;99.90
17007;DHT22;8620;51.168;4.154;2022-11-15T01:26:19;11.30;99.90
17007;DHT22;8620;51.168;4.154;2022-11-15T01:28:45;11.30;99.90
17007;DHT22;8620;51.168;4.154;2022-11-15T01:31:16;11.30;99.90
17007;DHT22;8620;51.168;4.154;2022-11-15T01:33:43;11.40;99.90
17007;DHT22;8620;51.168;4.154;2022-11-15T01:36:22;11.40;99.90
17007;DHT22;8620;51.168;4.154;2022-11-15T01:38:56;11.40;99.90
17007;DHT22;8620;51.168;4.154;2022-11-15T01:41:29;11.50;99.90
17007;DHT22;8620;51.168;4.154;2022-11-15T01:47:18;11.60;99.90
17007;DHT22;8620;51.168;4.154;2022-11-15T01:50:05;11.60;99.90
17007;DHT22;8620;51.168;4.154;2022-11-15T01:52:34;11.60;99.90
17007;DHT22;8620;51.168;4.154;2022-11-15T01:57:58;11.70;99.90
17007;DHT22;8620;51.168;4.154;2022-11-15T02:00:25;11.70;99.90
17007;DHT22;8620;51.168;4.154;2022-11-15T02:02:57;11.80;99.90
17007;DHT22;8620;51.168;4.154;2022-11-15T02:05:23;11.80;99.90
17007;DHT22;8620;51.168;4.154;2022-11-15T02:07:55;11.80;99.90
17007;DHT22;8620;51.168;4.154;2022-11-15T02:10:30;11.70;99.90
17007;DHT22;8620;51.168;4.154;2022-11-15T02:13:04;11.70;99.90
17007;DHT22;8620;51.168;4.154;2022-11-15T02:16:04;11.70;99.90
17007;DHT22;8620;51.168;4.154;2022-11-15T02:32:03;11.90;99.90
17007;DHT22;8620;51.168;4.154;2022-11-15T02:35:09;11.90;99.90
17007;DHT22;8620;51.168;4.154;2022-11-15T02:38:21;11.80;99.90
17007;DHT22;8620;51.168;4.154;2022-11-15T02:41:09;11.80;99.90
17007;DHT22;8620;51.168;4.154;2022-11-15T02:44:24;11.90;99.90
17007;DHT22;8620;51.168;4.154;2022-11-15T02:47:16;11.80;99.90
17007;DHT22;8620;51.168;4.154;2022-11-15T02:50:12;11.80;99.90
17007;DHT22;8620;51.168;4.154;2022-11-15T02:52:45;11.90;99.90
17007;DHT22;8620;51.168;4.154;2022-11-15T02:55:35;11.80;99.90
17007;DHT22;8620;51.168;4.154;2022-11-15T03:08:28;11.80;99.90
17007;DHT22;8620;51.168;4.154;2022-11-15T03:17:03;11.80;99.90
17007;DHT22;8620;51.168;4.154;2022-11-15T03:20:06;11.80;99.90
17007;DHT22;8620;51.168;4.154;2022-11-15T03:22:46;11.70;99.90
17007;DHT22;8620;51.168;4.154;2022-11-15T03:25:24;11.80;99.90
17007;DHT22;8620;51.168;4.154;2022-11-15T03:28:03;11.70;99.90
17007;DHT22;8620;51.168;4.154;2022-11-15T03:30:38;11.70;99.90
17007;DHT22;8620;51.168;4.154;2022-11-15T03:33:05;11.70;99.90
17007;DHT22;8620;51.168;4.154;2022-11-15T03:35:44;11.70;99.90
17007;DHT22;8620;51.168;4.154;2022-11-15T03:38:40;11.60;99.90
17007;DHT22;8620;51.168;4.154;2022-11-15T03:41:15;11.70;99.90
17007;DHT22;8620;51.168;4.154;2022-11-15T03:44:14;11.60;99.90
17007;DHT22;8620;51.168;4.154;2022-11-15T03:47:12;11.60;99.90
17007;DHT22;8620;51.168;4.154;2022-11-15T03:49:49;11.60;99.90
17007;DHT22;8620;51.168;4.154;2022-11-15T03:52:19;11.50;99.90
17007;DHT22;8620;51.168;4.154;2022-11-15T03:54:56;11.60;99.90
17007;DHT22;8620;51.168;4.154;2022-11-15T03:57:31;11.60;99.90
17007;DHT22;8620;51.168;4.154;2022-11-15T04:00:05;11.50;99.90
17007;DHT22;8620;51.168;4.154;2022-11-15T04:02:46;11.40;99.90
17007;DHT22;8620;51.168;4.154;2022-11-15T04:05:17;11.40;99.90
17007;DHT22;8620;51.168;4.154;2022-11-15T04:07:51;11.40;99.90
17007;DHT22;8620;51.168;4.154;2022-11-15T04:10:20;11.50;99.90
17007;DHT22;8620;51.168;4.154;2022-11-15T04:12:54;11.40;99.90
17007;DHT22;8620;51.168;4.154;2022-11-15T04:15:26;11.50;99.90
17007;DHT22;8620;51.168;4.154;2022-11-15T04:18:04;11.50;99.90
17007;DHT22;8620;51.168;4.154;2022-11-15T04:20:38;11.40;99.90
17007;DHT22;8620;51.168;4.154;2022-11-15T04:23:25;11.40;99.90
17007;DHT22;8620;51.168;4.154;2022-11-15T04:26:18;11.40;99.90
17007;DHT22;8620;51.168;4.154;2022-11-15T04:28:50;11.40;99.90
17007;DHT22;8620;51.168;4.154;2022-11-15T04:31:46;11.40;99.90
17007;DHT22;8620;51.168;4.154;2022-11-15T04:34:20;11.30;99.90
17007;DHT22;8620;51.168;4.154;2022-11-15T04:36:57;11.30;99.90
17007;DHT22;8620;51.168;4.154;2022-11-15T04:39:42;11.40;99.90
17007;DHT22;8620;51.168;4.154;2022-11-15T04:42:19;11.50;99.90
17007;DHT22;8620;51.168;4.154;2022-11-15T04:44:50;11.40;99.90
17007;DHT22;8620;51.168;4.154;2022-11-15T04:47:27;11.40;99.90
17007;DHT22;8620;51.168;4.154;2022-11-15T04:49:55;11.30;99.90
17007;DHT22;8620;51.168;4.154;2022-11-15T04:52:32;11.30;99.90
17007;DHT22;8620;51.168;4.154;2022-11-15T04:55:03;11.30;99.90
17007;DHT22;8620;51.168;4.154;2022-11-15T04:57:37;11.30;99.90
17007;DHT22;8620;51.168;4.154;2022-11-15T05:00:14;11.30;99.90
17007;DHT22;8620;51.168;4.154;2022-11-15T05:02:46;11.40;99.90
17007;DHT22;8620;51.168;4.154;2022-11-15T05:05:30;11.30;99.90
17007;DHT22;8620;51.168;4.154;2022-11-15T05:07:59;11.30;99.90
17007;DHT22;8620;51.168;4.154;2022-11-15T05:10:25;11.30;99.90
17007;DHT22;8620;51.168;4.154;2022-11-15T05:12:51;11.20;99.90
17007;DHT22;8620;51.168;4.154;2022-11-15T05:15:17;11.10;99.90
17007;DHT22;8620;51.168;4.154;2022-11-15T05:17:43;11.10;99.90
17007;DHT22;8620;51.168;4.154;2022-11-15T05:20:10;11.00;99.90
17007;DHT22;8620;51.168;4.154;2022-11-15T05:22:36;11.00;99.90
17007;DHT22;8620;51.168;4.154;2022-11-15T05:25:02;11.00;99.90
17007;DHT22;8620;51.168;4.154;2022-11-15T05:27:34;10.90;99.90
17007;DHT22;8620;51.168;4.154;2022-11-15T05:30:02;10.90;99.90
17007;DHT22;8620;51.168;4.154;2022-11-15T05:32:37;10.90;99.90
17007;DHT22;8620;51.168;4.154;2022-11-15T05:35:07;10.80;99.90
17007;DHT22;8620;51.168;4.154;2022-11-15T05:37:44;10.70;99.90
17007;DHT22;8620;51.168;4.154;2022-11-15T05:40:13;10.70;99.90
17007;DHT22;8620;51.168;4.154;2022-11-15T05:42:39;10.60;99.90
17007;DHT22;8620;51.168;4.154;2022-11-15T05:45:06;10.60;99.90
17007;DHT22;8620;51.168;4.154;2022-11-15T05:47:35;10.60;99.90
17007;DHT22;8620;51.168;4.154;2022-11-15T05:50:05;10.50;99.90
17007;DHT22;8620;51.168;4.154;2022-11-15T05:52:37;10.50;99.90
17007;DHT22;8620;51.168;4.154;2022-11-15T05:55:04;10.50;99.90
17007;DHT22;8620;51.168;4.154;2022-11-15T05:57:35;10.50;99.90
17007;DHT22;8620;51.168;4.154;2022-11-15T06:00:03;10.40;99.90
17007;DHT22;8620;51.168;4.154;2022-11-15T06:02:30;10.30;99.90
17007;DHT22;8620;51.168;4.154;2022-11-15T06:04:58;10.30;99.90
17007;DHT22;8620;51.168;4.154;2022-11-15T06:07:29;10.40;99.90
17007;DHT22;8620;51.168;4.154;2022-11-15T06:09:59;10.40;99.90
17007;DHT22;8620;51.168;4.154;2022-11-15T06:12:24;10.40;99.90
17007;DHT22;8620;51.168;4.154;2022-11-15T06:14:53;10.30;99.90
17007;DHT22;8620;51.168;4.154;2022-11-15T06:17:31;10.50;99.90
17007;DHT22;8620;51.168;4.154;2022-11-15T06:19:57;10.40;99.90
17007;DHT22;8620;51.168;4.154;2022-11-15T06:22:25;10.30;99.90
17007;DHT22;8620;51.168;4.154;2022-11-15T06:24:51;10.30;99.90
17007;DHT22;8620;51.168;4.154;2022-11-15T06:27:17;10.30;99.90
17007;DHT22;8620;51.168;4.154;2022-11-15T06:29:43;10.30;99.90
17007;DHT22;8620;51.168;4.154;2022-11-15T06:32:09;10.30;99.90
17007;DHT22;8620;51.168;4.154;2022-11-15T06:34:38;10.30;99.90
17007;DHT22;8620;51.168;4.154;2022-11-15T06:37:03;10.40;99.90
17007;DHT22;8620;51.168;4.154;2022-11-15T06:39:29;10.30;99.90
17007;DHT22;8620;51.168;4.154;2022-11-15T06:41:58;10.30;99.90
17007;DHT22;8620;51.168;4.154;2022-11-15T06:44:27;10.30;99.90
17007;DHT22;8620;51.168;4.154;2022-11-15T06:46:53;10.30;99.90
17007;DHT22;8620;51.168;4.154;2022-11-15T06:49:21;10.40;99.90
17007;DHT22;8620;51.168;4.154;2022-11-15T06:51:52;10.30;99.90
17007;DHT22;8620;51.168;4.154;2022-11-15T06:54:21;10.30;99.90
17007;DHT22;8620;51.168;4.154;2022-11-15T06:56:47;10.30;99.90
17007;DHT22;8620;51.168;4.154;2022-11-15T06:59:13;10.30;99.90
17007;DHT22;8620;51.168;4.154;2022-11-15T07:01:39;10.20;99.90
17007;DHT22;8620;51.168;4.154;2022-11-15T07:04:05;10.20;99.90
17007;DHT22;8620;51.168;4.154;2022-11-15T07:06:31;10.10;99.90
17007;DHT22;8620;51.168;4.154;2022-11-15T07:08:57;10.20;99.90
17007;DHT22;8620;51.168;4.154;2022-11-15T07:11:30;10.30;99.90
17007;DHT22;8620;51.168;4.154;2022-11-15T07:14:00;10.30;99.90
17007;DHT22;8620;51.168;4.154;2022-11-15T07:16:26;10.30;99.90
17007;DHT22;8620;51.168;4.154;2022-11-15T07:18:51;10.30;99.90
17007;DHT22;8620;51.168;4.154;2022-11-15T07:21:42;10.20;99.90
17007;DHT22;8620;51.168;4.154;2022-11-15T07:24:10;10.20;99.90
17007;DHT22;8620;51.168;4.154;2022-11-15T07:26:39;10.30;99.90
17007;DHT22;8620;51.168;4.154;2022-11-15T07:29:04;10.30;99.90
17007;DHT22;8620;51.168;4.154;2022-11-15T07:31:40;10.30;99.90
17007;DHT22;8620;51.168;4.154;2022-11-15T07:34:07;10.30;99.90
17007;DHT22;8620;51.168;4.154;2022-11-15T07:36:33;10.10;99.90
17007;DHT22;8620;51.168;4.154;2022-11-15T07:39:02;10.10;99.90
17007;DHT22;8620;51.168;4.154;2022-11-15T07:41:31;10.20;99.90
17007;DHT22;8620;51.168;4.154;2022-11-15T07:43:57;10.20;99.90
17007;DHT22;8620;51.168;4.154;2022-11-15T07:46:28;10.20;99.90
17007;DHT22;8620;51.168;4.154;2022-11-15T07:48:59;10.20;99.90
17007;DHT22;8620;51.168;4.154;2022-11-15T07:51:34;10.30;99.90
17007;DHT22;8620;51.168;4.154;2022-11-15T07:54:03;10.20;99.90
17007;DHT22;8620;51.168;4.154;2022-11-15T07:56:29;10.20;99.90
17007;DHT22;8620;51.168;4.154;2022-11-15T07:58:58;10.30;99.90
17007;DHT22;8620;51.168;4.154;2022-11-15T08:01:33;10.30;99.90
17007;DHT22;8620;51.168;4.154;2022-11-15T08:04:05;10.30;99.90
17007;DHT22;8620;51.168;4.154;2022-11-15T08:06:51;10.40;99.90
17007;DHT22;8620;51.168;4.154;2022-11-15T08:09:17;10.50;99.90
17007;DHT22;8620;51.168;4.154;2022-11-15T08:11:54;10.60;99.90
17007;DHT22;8620;51.168;4.154;2022-11-15T08:14:25;10.70;99.90
17007;DHT22;8620;51.168;4.154;2022-11-15T08:17:16;10.70;99.90
17007;DHT22;8620;51.168;4.154;2022-11-15T08:19:49;10.90;99.90
17007;DHT22;8620;51.168;4.154;2022-11-15T08:22:15;10.90;99.90
17007;DHT22;8620;51.168;4.154;2022-11-15T08:24:43;11.00;99.90
17007;DHT22;8620;51.168;4.154;2022-11-15T08:27:31;10.90;99.90
17007;DHT22;8620;51.168;4.154;2022-11-15T08:29:56;11.00;99.90
17007;DHT22;8620;51.168;4.154;2022-11-15T08:32:30;11.00;99.90
17007;DHT22;8620;51.168;4.154;2022-11-15T08:35:19;11.10;99.90
17007;DHT22;8620;51.168;4.154;2022-11-15T08:37:49;11.00;99.90
17007;DHT22;8620;51.168;4.154;2022-11-15T08:40:15;11.20;99.90
17007;DHT22;8620;51.168;4.154;2022-11-15T08:42:59;11.10;99.90
17007;DHT22;8620;51.168;4.154;2022-11-15T08:45:28;11.00;99.90
17007;DHT22;8620;51.168;4.154;2022-11-15T08:48:00;11.20;99.90
17007;DHT22;8620;51.168;4.154;2022-11-15T08:50:34;11.40;99.90
17007;DHT22;8620;51.168;4.154;2022-11-15T08:53:07;11.30;99.90
17007;DHT22;8620;51.168;4.154;2022-11-15T08:55:36;11.40;99.90
17007;DHT22;8620;51.168;4.154;2022-11-15T08:58:06;11.50;99.90
17007;DHT22;8620;51.168;4.154;2022-11-15T09:00:55;11.50;99.90
17007;DHT22;8620;51.168;4.154;2022-11-15T09:03:27;11.60;99.90
17007;DHT22;8620;51.168;4.154;2022-11-15T09:06:16;11.90;99.90
17007;DHT22;8620;51.168;4.154;2022-11-15T09:09:05;12.30;99.90
17007;DHT22;8620;51.168;4.154;2022-11-15T09:11:37;12.50;99.90
17007;DHT22;8620;51.168;4.154;2022-11-15T09:14:09;12.70;99.90
17007;DHT22;8620;51.168;4.154;2022-11-15T09:16:36;12.70;99.90
17007;DHT22;8620;51.168;4.154;2022-11-15T09:19:13;12.50;99.90
17007;DHT22;8620;51.168;4.154;2022-11-15T09:21:43;12.40;99.90
17007;DHT22;8620;51.168;4.154;2022-11-15T09:24:12;12.10;99.90
17007;DHT22;8620;51.168;4.154;2022-11-15T09:26:41;12.20;99.90
17007;DHT22;8620;51.168;4.154;2022-11-15T09:29:07;12.10;99.90
17007;DHT22;8620;51.168;4.154;2022-11-15T09:31:51;12.00;99.90
17007;DHT22;8620;51.168;4.154;2022-11-15T09:34:20;12.10;99.90
17007;DHT22;8620;51.168;4.154;2022-11-15T09:37:00;12.20;99.90
17007;DHT22;8620;51.168;4.154;2022-11-15T09:39:29;12.20;99.90
17007;DHT22;8620;51.168;4.154;2022-11-15T09:50:13;13.10;99.90
17007;DHT22;8620;51.168;4.154;2022-11-15T09:52:44;13.30;99.90
17007;DHT22;8620;51.168;4.154;2022-11-15T09:55:12;13.40;99.90
17007;DHT22;8620;51.168;4.154;2022-11-15T10:00:45;13.60;99.90
17007;DHT22;8620;51.168;4.154;2022-11-15T10:03:49;13.10;99.90
17007;DHT22;8620;51.168;4.154;2022-11-15T10:06:25;13.30;99.90
17007;DHT22;8620;51.168;4.154;2022-11-15T10:09:03;13.20;99.90
17007;DHT22;8620;51.168;4.154;2022-11-15T10:11:51;13.30;99.90
17007;DHT22;8620;51.168;4.154;2022-11-15T10:14:25;13.20;99.90
17007;DHT22;8620;51.168;4.154;2022-11-15T10:36:16;12.90;99.90
17007;DHT22;8620;51.168;4.154;2022-11-15T10:38:53;13.10;99.90
17007;DHT22;8620;51.168;4.154;2022-11-15T10:41:33;13.30;99.90
17007;DHT22;8620;51.168;4.154;2022-11-15T10:46:40;13.90;99.90
17007;DHT22;8620;51.168;4.154;2022-11-15T10:49:21;14.10;99.90
17007;DHT22;8620;51.168;4.154;2022-11-15T10:52:00;14.00;99.90
17007;DHT22;8620;51.168;4.154;2022-11-15T10:57:27;13.70;99.90
17007;DHT22;8620;51.168;4.154;2022-11-15T11:00:12;13.60;99.90
17007;DHT22;8620;51.168;4.154;2022-11-15T11:03:02;13.90;99.90
17007;DHT22;8620;51.168;4.154;2022-11-15T11:10:38;13.40;99.90
17007;DHT22;8620;51.168;4.154;2022-11-15T11:13:24;13.40;99.90
17007;DHT22;8620;51.168;4.154;2022-11-15T11:19:02;13.40;99.90
17007;DHT22;8620;51.168;4.154;2022-11-15T11:22:06;13.40;99.90
17007;DHT22;8620;51.168;4.154;2022-11-15T11:37:34;14.10;99.90
17007;DHT22;8620;51.168;4.154;2022-11-15T11:50:00;13.70;99.90
17007;DHT22;8620;51.168;4.154;2022-11-15T11:53:05;13.80;99.90
17007;DHT22;8620;51.168;4.154;2022-11-15T12:05:10;14.00;99.90
17007;DHT22;8620;51.168;4.154;2022-11-15T12:07:53;14.00;99.90
17007;DHT22;8620;51.168;4.154;2022-11-15T12:13:19;13.60;99.90
17007;DHT22;8620;51.168;4.154;2022-11-15T12:16:08;13.70;99.90
17007;DHT22;8620;51.168;4.154;2022-11-15T12:18:53;13.70;99.90
17007;DHT22;8620;51.168;4.154;2022-11-15T12:21:49;13.70;99.90
17007;DHT22;8620;51.168;4.154;2022-11-15T12:27:36;13.70;99.90
17007;DHT22;8620;51.168;4.154;2022-11-15T12:30:09;13.70;99.90
17007;DHT22;8620;51.168;4.154;2022-11-15T12:32:39;13.80;99.90
17007;DHT22;8620;51.168;4.154;2022-11-15T12:35:24;13.80;99.90
17007;DHT22;8620;51.168;4.154;2022-11-15T12:38:10;13.70;99.90
17007;DHT22;8620;51.168;4.154;2022-11-15T12:49:48;13.80;99.90
17007;DHT22;8620;51.168;4.154;2022-11-15T12:52:32;13.80;99.90
17007;DHT22;8620;51.168;4.154;2022-11-15T12:55:00;13.70;99.90
17007;DHT22;8620;51.168;4.154;2022-11-15T12:57:45;13.70;99.90
17007;DHT22;8620;51.168;4.154;2022-11-15T13:03:32;13.90;99.90
17007;DHT22;8620;51.168;4.154;2022-11-15T13:06:01;13.70;99.90
17007;DHT22;8620;51.168;4.154;2022-11-15T13:08:43;13.80;99.90
17007;DHT22;8620;51.168;4.154;2022-11-15T13:17:25;13.90;99.90
17007;DHT22;8620;51.168;4.154;2022-11-15T13:22:51;13.90;99.90
17007;DHT22;8620;51.168;4.154;2022-11-15T13:30:52;14.00;99.90
17007;DHT22;8620;51.168;4.154;2022-11-15T13:33:34;14.00;99.90
17007;DHT22;8620;51.168;4.154;2022-11-15T13:39:06;13.90;99.90
17007;DHT22;8620;51.168;4.154;2022-11-15T13:41:48;13.80;99.90
17007;DHT22;8620;51.168;4.154;2022-11-15T13:44:23;13.70;99.90
17007;DHT22;8620;51.168;4.154;2022-11-15T13:47:29;13.90;99.90
17007;DHT22;8620;51.168;4.154;2022-11-15T13:49:58;13.90;99.90
17007;DHT22;8620;51.168;4.154;2022-11-15T13:52:48;13.80;99.90
17007;DHT22;8620;51.168;4.154;2022-11-15T13:55:20;13.80;99.90
17007;DHT22;8620;51.168;4.154;2022-11-15T13:57:56;13.90;99.90
17007;DHT22;8620;51.168;4.154;2022-11-15T14:00:30;14.00;99.90
17007;DHT22;8620;51.168;4.154;2022-11-15T14:03:16;14.00;99.90
17007;DHT22;8620;51.168;4.154;2022-11-15T14:11:32;13.80;99.90
17007;DHT22;8620;51.168;4.154;2022-11-15T14:17:18;13.90;99.90
17007;DHT22;8620;51.168;4.154;2022-11-15T14:19:45;13.80;99.90
17007;DHT22;8620;51.168;4.154;2022-11-15T14:22:34;13.70;99.90
17007;DHT22;8620;51.168;4.154;2022-11-15T14:25:20;13.60;99.90
17007;DHT22;8620;51.168;4.154;2022-11-15T14:28:13;13.60;99.90
17007;DHT22;8620;51.168;4.154;2022-11-15T14:30:50;13.50;99.90
17007;DHT22;8620;51.168;4.154;2022-11-15T14:36:05;13.30;99.90
17007;DHT22;8620;51.168;4.154;2022-11-15T14:38:56;13.00;99.90
17007;DHT22;8620;51.168;4.154;2022-11-15T14:41:25;13.00;99.90
17007;DHT22;8620;51.168;4.154;2022-11-15T14:44:09;12.80;99.90
17007;DHT22;8620;51.168;4.154;2022-11-15T14:46:36;12.70;99.90
17007;DHT22;8620;51.168;4.154;2022-11-15T14:49:02;12.60;99.90
17007;DHT22;8620;51.168;4.154;2022-11-15T14:51:33;12.50;99.90
17007;DHT22;8620;51.168;4.154;2022-11-15T14:53:59;12.60;99.90
17007;DHT22;8620;51.168;4.154;2022-11-15T14:56:25;12.50;99.90
17007;DHT22;8620;51.168;4.154;2022-11-15T14:58:51;12.50;99.90
17007;DHT22;8620;51.168;4.154;2022-11-15T15:01:46;12.40;99.90
17007;DHT22;8620;51.168;4.154;2022-11-15T15:04:14;12.50;99.90
17007;DHT22;8620;51.168;4.154;2022-11-15T15:06:49;12.40;99.90
17007;DHT22;8620;51.168;4.154;2022-11-15T15:09:15;12.40;99.90
17007;DHT22;8620;51.168;4.154;2022-11-15T15:12:02;12.40;99.90
17007;DHT22;8620;51.168;4.154;2022-11-15T15:14:30;12.40;99.90
17007;DHT22;8620;51.168;4.154;2022-11-15T15:16:59;12.30;99.90
17007;DHT22;8620;51.168;4.154;2022-11-15T15:19:25;12.30;99.90
17007;DHT22;8620;51.168;4.154;2022-11-15T15:21:57;12.30;99.90
17007;DHT22;8620;51.168;4.154;2022-11-15T15:24:49;12.30;99.90
17007;DHT22;8620;51.168;4.154;2022-11-15T15:27:36;12.30;99.90
17007;DHT22;8620;51.168;4.154;2022-11-15T15:30:05;12.30;99.90
17007;DHT22;8620;51.168;4.154;2022-11-15T15:32:39;12.20;99.90
17007;DHT22;8620;51.168;4.154;2022-11-15T15:35:45;12.20;99.90
17007;DHT22;8620;51.168;4.154;2022-11-15T15:38:34;12.20;99.90
17007;DHT22;8620;51.168;4.154;2022-11-15T15:44:29;12.20;99.90
17007;DHT22;8620;51.168;4.154;2022-11-15T15:47:19;12.20;99.90
17007;DHT22;8620;51.168;4.154;2022-11-15T15:49:50;12.20;99.90
17007;DHT22;8620;51.168;4.154;2022-11-15T15:52:41;12.20;99.90
17007;DHT22;8620;51.168;4.154;2022-11-15T15:55:29;12.20;99.90
17007;DHT22;8620;51.168;4.154;2022-11-15T15:58:03;12.10;99.90
17007;DHT22;8620;51.168;4.154;2022-11-15T16:01:13;12.10;99.90
17007;DHT22;8620;51.168;4.154;2022-11-15T16:03:42;12.10;99.90
17007;DHT22;8620;51.168;4.154;2022-11-15T16:06:41;12.20;99.90
17007;DHT22;8620;51.168;4.154;2022-11-15T16:09:39;12.10;99.90
17007;DHT22;8620;51.168;4.154;2022-11-15T16:12:49;12.10;99.90
17007;DHT22;8620;51.168;4.154;2022-11-15T16:15:42;12.20;99.90
17007;DHT22;8620;51.168;4.154;2022-11-15T16:18:33;12.20;99.90
17007;DHT22;8620;51.168;4.154;2022-11-15T16:21:49;12.10;99.90
17007;DHT22;8620;51.168;4.154;2022-11-15T16:24:40;12.10;99.90
17007;DHT22;8620;51.168;4.154;2022-11-15T16:27:26;12.10;99.90
17007;DHT22;8620;51.168;4.154;2022-11-15T16:30:33;12.10;99.90
17007;DHT22;8620;51.168;4.154;2022-11-15T16:33:32;12.10;99.90
17007;DHT22;8620;51.168;4.154;2022-11-15T16:36:44;12.10;99.90
17007;DHT22;8620;51.168;4.154;2022-11-15T16:40:09;12.20;99.90
17007;DHT22;8620;51.168;4.154;2022-11-15T16:46:30;12.20;99.90
17007;DHT22;8620;51.168;4.154;2022-11-15T16:49:44;12.20;99.90
17007;DHT22;8620;51.168;4.154;2022-11-15T16:52:53;12.30;99.90
17007;DHT22;8620;51.168;4.154;2022-11-15T16:55:22;12.30;99.90
17007;DHT22;8620;51.168;4.154;2022-11-15T16:58:25;12.30;99.90
17007;DHT22;8620;51.168;4.154;2022-11-15T17:01:15;12.30;99.90
17007;DHT22;8620;51.168;4.154;2022-11-15T17:04:19;12.40;99.90
17007;DHT22;8620;51.168;4.154;2022-11-15T17:07:22;12.40;99.90
17007;DHT22;8620;51.168;4.154;2022-11-15T17:13:34;12.40;99.90
17007;DHT22;8620;51.168;4.154;2022-11-15T17:16:35;12.40;99.90
17007;DHT22;8620;51.168;4.154;2022-11-15T17:19:20;12.40;99.90
17007;DHT22;8620;51.168;4.154;2022-11-15T17:22:09;12.40;99.90
17007;DHT22;8620;51.168;4.154;2022-11-15T17:24:59;12.50;99.90
17007;DHT22;8620;51.168;4.154;2022-11-15T17:27:47;12.40;99.90
17007;DHT22;8620;51.168;4.154;2022-11-15T17:30:40;12.40;99.90
17007;DHT22;8620;51.168;4.154;2022-11-15T17:33:19;12.50;99.90
17007;DHT22;8620;51.168;4.154;2022-11-15T17:36:13;12.60;99.90
17007;DHT22;8620;51.168;4.154;2022-11-15T17:39:00;12.50;99.90
17007;DHT22;8620;51.168;4.154;2022-11-15T17:42:04;12.50;99.90
17007;DHT22;8620;51.168;4.154;2022-11-15T17:44:41;12.50;99.90
17007;DHT22;8620;51.168;4.154;2022-11-15T17:47:18;12.50;99.90
17007;DHT22;8620;51.168;4.154;2022-11-15T17:53:18;12.40;99.90
17007;DHT22;8620;51.168;4.154;2022-11-15T17:55:52;12.50;99.90
17007;DHT22;8620;51.168;4.154;2022-11-15T17:58:19;12.50;99.90
17007;DHT22;8620;51.168;4.154;2022-11-15T18:00:45;12.40;99.90
17007;DHT22;8620;51.168;4.154;2022-11-15T18:03:36;12.50;99.90
17007;DHT22;8620;51.168;4.154;2022-11-15T18:09:24;12.50;99.90
17007;DHT22;8620;51.168;4.154;2022-11-15T18:12:15;12.50;99.90
17007;DHT22;8620;51.168;4.154;2022-11-15T18:14:41;12.50;99.90
17007;DHT22;8620;51.168;4.154;2022-11-15T18:17:25;12.50;99.90
17007;DHT22;8620;51.168;4.154;2022-11-15T18:19:58;12.50;99.90
17007;DHT22;8620;51.168;4.154;2022-11-15T18:22:24;12.50;99.90
17007;DHT22;8620;51.168;4.154;2022-11-15T18:24:50;12.50;99.90
17007;DHT22;8620;51.168;4.154;2022-11-15T18:27:34;12.40;99.90
17007;DHT22;8620;51.168;4.154;2022-11-15T18:30:03;12.40;99.90
17007;DHT22;8620;51.168;4.154;2022-11-15T18:32:32;12.40;99.90
17007;DHT22;8620;51.168;4.154;2022-11-15T18:35:01;12.40;99.90
17007;DHT22;8620;51.168;4.154;2022-11-15T18:37:48;12.40;99.90
17007;DHT22;8620;51.168;4.154;2022-11-15T18:40:20;12.50;99.90
17007;DHT22;8620;51.168;4.154;2022-11-15T18:42:59;12.50;99.90
17007;DHT22;8620;51.168;4.154;2022-11-15T18:45:28;12.50;99.90
17007;DHT22;8620;51.168;4.154;2022-11-15T18:47:54;12.50;99.90
17007;DHT22;8620;51.168;4.154;2022-11-15T18:50:22;12.50;99.90
17007;DHT22;8620;51.168;4.154;2022-11-15T18:52:48;12.50;99.90
17007;DHT22;8620;51.168;4.154;2022-11-15T18:55:17;12.50;99.90
17007;DHT22;8620;51.168;4.154;2022-11-15T18:57:48;12.40;99.90
17007;DHT22;8620;51.168;4.154;2022-11-15T19:00:15;12.50;99.90
17007;DHT22;8620;51.168;4.154;2022-11-15T19:02:41;12.50;99.90
17007;DHT22;8620;51.168;4.154;2022-11-15T19:05:13;12.50;99.90
17007;DHT22;8620;51.168;4.154;2022-11-15T19:07:47;12.50;99.90
17007;DHT22;8620;51.168;4.154;2022-11-15T19:10:14;12.60;99.90
17007;DHT22;8620;51.168;4.154;2022-11-15T19:12:40;12.60;99.90
17007;DHT22;8620;51.168;4.154;2022-11-15T19:15:06;12.60;99.90
17007;DHT22;8620;51.168;4.154;2022-11-15T19:17:32;12.70;99.90
17007;DHT22;8620;51.168;4.154;2022-11-15T19:19:58;12.70;99.90
17007;DHT22;8620;51.168;4.154;2022-11-15T19:22:23;12.80;99.90
17007;DHT22;8620;51.168;4.154;2022-11-15T19:24:53;12.70;99.90
17007;DHT22;8620;51.168;4.154;2022-11-15T19:27:18;12.60;99.90
17007;DHT22;8620;51.168;4.154;2022-11-15T19:29:44;12.70;99.90
17007;DHT22;8620;51.168;4.154;2022-11-15T19:32:10;12.70;99.90
17007;DHT22;8620;51.168;4.154;2022-11-15T19:34:45;12.70;99.90
17007;DHT22;8620;51.168;4.154;2022-11-15T19:37:10;12.70;99.90
17007;DHT22;8620;51.168;4.154;2022-11-15T19:39:36;12.70;99.90